createdAt,value
2023-02-13T00:00:34.451Z,6.97
2023-02-13T00:03:01.816Z,6.93
2023-02-13T00:05:30.090Z,6.90
2023-02-13T00:07:57.478Z,6.70
2023-02-13T00:10:24.745Z,6.68
2023-02-13T00:12:51.774Z,6.94
2023-02-13T00:15:18.950Z,6.76
2023-02-13T00:17:45.981Z,7.04
2023-02-13T00:20:13.398Z,7.03
2023-02-13T00:22:40.501Z,6.98
2023-02-13T00:25:08.047Z,6.99
2023-02-13T00:27:35.073Z,6.85
2023-02-13T00:30:04.079Z,6.88
2023-02-13T00:32:31.746Z,6.84
2023-02-13T00:34:58.767Z,6.97
2023-02-13T00:37:26.187Z,6.60
2023-02-13T00:39:53.338Z,7.01
2023-02-13T00:42:24.012Z,6.97
2023-02-13T00:44:51.322Z,7.03
2023-02-13T00:47:19.142Z,7.06
2023-02-13T00:49:46.585Z,7.06
2023-02-13T00:52:13.960Z,6.96
2023-02-13T00:54:40.949Z,6.95
2023-02-13T00:57:08.054Z,6.82
2023-02-13T00:59:35.206Z,7.01
2023-02-13T01:02:02.306Z,6.97
2023-02-13T01:04:29.393Z,6.66
2023-02-13T01:06:57.731Z,6.92
2023-02-13T01:09:25.459Z,6.93
2023-02-13T01:11:52.670Z,6.82
2023-02-13T01:14:19.841Z,6.67
2023-02-13T01:16:48.468Z,6.53
2023-02-13T01:19:15.835Z,6.94
2023-02-13T01:21:43.959Z,6.96
2023-02-13T01:24:11.015Z,6.93
2023-02-13T01:26:38.134Z,6.88
2023-02-13T01:29:05.219Z,6.90
2023-02-13T01:31:33.206Z,6.86
2023-02-13T01:34:00.268Z,6.78
2023-02-13T01:36:27.416Z,6.40
2023-02-13T01:38:56.869Z,6.34
2023-02-13T01:41:29.123Z,6.70
2023-02-13T01:44:01.644Z,6.49
2023-02-13T01:46:35.417Z,6.87
2023-02-13T01:49:13.449Z,6.46
2023-02-13T01:51:41.650Z,6.81
2023-02-13T01:54:17.499Z,6.24
2023-02-13T01:56:53.942Z,6.76
2023-02-13T01:59:40.040Z,6.54
2023-02-13T02:02:07.600Z,6.88
2023-02-13T02:04:38.459Z,6.79
2023-02-13T02:07:17.898Z,6.79
2023-02-13T02:09:48.033Z,6.86
2023-02-13T02:12:25.638Z,6.78
2023-02-13T02:14:55.565Z,6.20
2023-02-13T02:17:25.369Z,6.90
2023-02-13T02:20:03.793Z,6.84
2023-02-13T02:23:08.529Z,6.87
2023-02-13T02:26:15.477Z,6.85
2023-02-13T02:29:01.657Z,6.78
2023-02-13T02:32:01.383Z,6.33
2023-02-13T02:34:47.915Z,6.61
2023-02-13T02:37:30.123Z,6.70
2023-02-13T02:40:09.616Z,6.72
2023-02-13T02:42:48.669Z,6.66
2023-02-13T02:45:45.201Z,6.77
2023-02-13T02:48:50.630Z,6.72
2023-02-13T02:51:27.009Z,6.67
2023-02-13T02:54:28.798Z,6.05
2023-02-13T02:57:02.485Z,6.55
2023-02-13T02:59:51.304Z,6.64
2023-02-13T03:02:47.683Z,6.65
2023-02-13T03:06:04.334Z,6.67
2023-02-13T03:08:50.060Z,6.52
2023-02-13T03:11:35.650Z,6.67
2023-02-13T03:14:06.967Z,6.75
2023-02-13T03:16:52.264Z,6.71
2023-02-13T03:19:56.036Z,6.72
2023-02-13T03:22:49.126Z,6.71
2023-02-13T03:25:35.479Z,6.69
2023-02-13T03:28:46.339Z,6.61
2023-02-13T03:31:24.356Z,6.60
2023-02-13T03:34:11.095Z,6.66
2023-02-13T03:37:06.052Z,6.66
2023-02-13T03:39:46.598Z,6.65
2023-02-13T03:42:44.914Z,6.62
2023-02-13T03:45:36.006Z,6.67
2023-02-13T03:48:09.908Z,6.16
2023-02-13T03:50:42.862Z,6.77
2023-02-13T03:53:13.366Z,6.72
2023-02-13T03:56:04.744Z,6.69
2023-02-13T03:58:57.596Z,6.80
2023-02-13T04:01:27.904Z,6.42
2023-02-13T04:04:13.516Z,6.71
2023-02-13T04:06:47.627Z,6.40
2023-02-13T04:09:15.736Z,6.76
2023-02-13T04:12:16.655Z,6.72
2023-02-13T04:14:49.775Z,6.66
2023-02-13T04:17:27.069Z,6.36
2023-02-13T04:19:54.742Z,6.36
2023-02-13T04:22:21.868Z,6.58
2023-02-13T04:24:48.979Z,6.54
2023-02-13T04:27:17.391Z,6.66
2023-02-13T04:29:44.571Z,6.49
2023-02-13T04:32:11.788Z,6.57
2023-02-13T04:34:39.153Z,6.63
2023-02-13T04:37:06.224Z,6.73
2023-02-13T04:39:33.262Z,6.71
2023-02-13T04:42:00.724Z,6.62
2023-02-13T04:44:27.787Z,6.66
2023-02-13T04:46:54.834Z,6.72
2023-02-13T04:49:21.976Z,6.59
2023-02-13T04:51:49.109Z,6.67
2023-02-13T04:54:16.236Z,6.55
2023-02-13T04:56:44.483Z,6.79
2023-02-13T04:59:11.460Z,6.71
2023-02-13T05:01:38.461Z,6.69
2023-02-13T05:04:05.617Z,6.58
2023-02-13T05:06:33.034Z,6.76
2023-02-13T05:09:00.037Z,6.72
2023-02-13T05:11:27.040Z,6.57
2023-02-13T05:13:54.079Z,6.68
2023-02-13T05:16:21.155Z,6.67
2023-02-13T05:18:48.377Z,6.59
2023-02-13T05:21:33.799Z,6.63
2023-02-13T05:24:01.176Z,6.64
2023-02-13T05:26:28.204Z,6.39
2023-02-13T05:29:13.758Z,6.59
2023-02-13T05:31:40.860Z,6.58
2023-02-13T05:34:08.001Z,6.42
2023-02-13T05:36:35.383Z,6.69
2023-02-13T05:39:02.453Z,6.61
2023-02-13T05:41:29.490Z,6.64
2023-02-13T05:43:56.690Z,6.65
2023-02-13T05:46:23.810Z,6.60
2023-02-13T05:48:52.035Z,6.64
2023-02-13T05:51:19.916Z,6.52
2023-02-13T05:53:47.060Z,6.45
2023-02-13T05:56:14.171Z,5.76
2023-02-13T05:58:41.623Z,5.62
2023-02-13T06:01:08.896Z,6.19
2023-02-13T06:03:35.998Z,5.60
2023-02-13T06:06:03.384Z,5.57
2023-02-13T06:08:30.466Z,5.64
2023-02-13T06:10:57.790Z,5.45
2023-02-13T06:13:25.708Z,5.69
2023-02-13T06:15:53.142Z,5.47
2023-02-13T06:18:20.245Z,5.26
2023-02-13T06:20:47.334Z,5.59
2023-02-13T06:23:14.670Z,5.45
2023-02-13T06:25:41.673Z,5.34
2023-02-13T06:28:08.702Z,5.24
2023-02-13T06:30:35.827Z,5.18
2023-02-13T06:33:02.909Z,5.09
2023-02-13T06:35:30.072Z,4.51
2023-02-13T06:37:57.064Z,4.82
2023-02-13T06:40:24.218Z,4.39
2023-02-13T06:42:51.307Z,4.70
2023-02-13T06:45:18.418Z,4.79
2023-02-13T06:47:47.856Z,4.92
2023-02-13T06:50:16.427Z,4.86
2023-02-13T06:52:51.310Z,4.85
2023-02-13T06:55:18.864Z,4.69
2023-02-13T06:57:45.992Z,4.48
2023-02-13T07:00:15.058Z,4.80
2023-02-13T07:02:43.735Z,4.76
2023-02-13T07:05:11.582Z,4.10
2023-02-13T07:07:41.183Z,4.77
2023-02-13T07:10:13.180Z,4.76
2023-02-13T07:12:40.831Z,4.72
2023-02-13T07:15:08.421Z,4.61
2023-02-13T07:17:35.538Z,4.45
2023-02-13T07:20:04.561Z,4.55
2023-02-13T07:22:32.874Z,3.91
2023-02-13T07:25:00.770Z,4.48
2023-02-13T07:27:30.976Z,4.65
2023-02-13T07:29:58.027Z,4.69
2023-02-13T07:32:25.601Z,4.79
2023-02-13T07:35:01.609Z,4.46
2023-02-13T07:37:31.205Z,4.87
2023-02-13T07:39:58.253Z,4.98
2023-02-13T07:42:25.378Z,5.05
2023-02-13T07:44:52.417Z,5.04
2023-02-13T07:47:20.299Z,5.25
2023-02-13T07:49:47.453Z,5.26
2023-02-13T07:52:14.638Z,5.26
2023-02-13T07:54:51.309Z,5.17
2023-02-13T07:57:18.628Z,5.49
2023-02-13T07:59:45.620Z,5.13
2023-02-13T08:02:14.418Z,5.52
2023-02-13T08:04:46.041Z,5.65
2023-02-13T08:07:14.360Z,5.69
2023-02-13T08:10:00.065Z,5.32
2023-02-13T08:12:27.443Z,5.92
2023-02-13T08:14:54.715Z,6.03
2023-02-13T08:17:21.738Z,6.18
2023-02-13T08:19:49.494Z,6.26
2023-02-13T08:22:16.623Z,6.47
2023-02-13T08:24:43.616Z,6.60
2023-02-13T08:27:13.256Z,6.61
2023-02-13T08:29:40.565Z,6.66
2023-02-13T08:32:08.289Z,6.75
2023-02-13T08:34:35.421Z,6.75
2023-02-13T08:37:03.411Z,6.85
2023-02-13T08:39:30.476Z,6.99
2023-02-13T08:41:57.534Z,6.90
2023-02-13T08:44:24.881Z,6.65
2023-02-13T08:46:52.346Z,6.52
2023-02-13T08:49:19.520Z,7.06
2023-02-13T08:51:46.732Z,7.04
2023-02-13T08:54:13.729Z,7.11
2023-02-13T08:56:46.580Z,6.53
2023-02-13T08:59:13.781Z,7.25
2023-02-13T09:01:41.503Z,6.87
2023-02-13T09:04:08.632Z,7.40
2023-02-13T09:06:35.721Z,7.54
2023-02-13T09:09:05.279Z,7.66
2023-02-13T09:11:32.441Z,7.72
2023-02-13T09:13:59.451Z,7.55
2023-02-13T09:16:26.527Z,7.97
2023-02-13T09:18:53.671Z,8.09
2023-02-13T09:21:23.554Z,8.16
2023-02-13T09:23:52.947Z,8.12
2023-02-13T09:26:20.854Z,8.04
2023-02-13T09:28:53.990Z,8.28
2023-02-13T09:31:21.359Z,8.11
2023-02-13T09:33:49.909Z,8.32
2023-02-13T09:36:20.299Z,8.44
2023-02-13T09:38:51.458Z,8.61
2023-02-13T09:41:23.145Z,8.52
2023-02-13T09:44:38.330Z,8.67
2023-02-13T09:47:29.786Z,8.55
2023-02-13T09:50:06.592Z,8.57
2023-02-13T09:52:37.131Z,8.67
2023-02-13T09:55:18.322Z,8.39
2023-02-13T09:58:16.382Z,8.87
2023-02-13T10:00:47.039Z,8.69
2023-02-13T10:03:19.572Z,8.67
2023-02-13T10:06:09.444Z,8.99
2023-02-13T10:09:06.658Z,9.19
2023-02-13T10:11:52.533Z,9.39
2023-02-13T10:14:21.628Z,9.47
2023-02-13T10:16:58.929Z,9.52
2023-02-13T10:19:41.372Z,9.67
2023-02-13T10:22:26.823Z,9.78
2023-02-13T10:25:01.303Z,9.80
2023-02-13T10:27:38.947Z,9.80
2023-02-13T10:30:17.078Z,9.44
2023-02-13T10:32:47.038Z,9.92
2023-02-13T10:35:24.767Z,9.98
2023-02-13T10:37:56.000Z,9.98
2023-02-13T10:40:32.641Z,9.77
2023-02-13T10:43:10.473Z,10.06
2023-02-13T10:45:55.534Z,10.04
2023-02-13T10:48:46.227Z,9.72
2023-02-13T10:51:27.346Z,10.08
2023-02-13T10:54:16.920Z,9.51
2023-02-13T10:56:55.400Z,9.95
2023-02-13T10:59:49.253Z,10.25
2023-02-13T11:02:28.872Z,10.26
2023-02-13T11:05:02.582Z,10.18
2023-02-13T11:07:30.667Z,10.30
2023-02-13T11:10:13.191Z,10.36
2023-02-13T11:12:40.277Z,10.34
2023-02-13T11:15:20.074Z,10.39
2023-02-13T11:17:47.802Z,10.47
2023-02-13T11:20:44.391Z,10.49
2023-02-13T11:23:29.763Z,10.51
2023-02-13T11:26:08.655Z,10.72
2023-02-13T11:28:48.186Z,10.75
2023-02-13T11:31:29.753Z,10.83
2023-02-13T11:33:59.161Z,10.81
2023-02-13T11:36:32.684Z,11.27
2023-02-13T11:39:06.004Z,13.05
2023-02-13T11:41:42.439Z,13.50
2023-02-13T11:44:35.565Z,12.64
2023-02-13T11:47:16.080Z,12.11
2023-02-13T11:50:27.218Z,11.83
2023-02-13T11:53:07.942Z,11.63
2023-02-13T11:55:38.397Z,11.13
2023-02-13T11:58:11.442Z,11.50
2023-02-13T12:00:41.425Z,11.41
2023-02-13T12:03:30.383Z,11.46
2023-02-13T12:06:23.861Z,11.48
2023-02-13T12:09:00.141Z,11.50
2023-02-13T12:11:30.138Z,11.48
2023-02-13T12:13:58.133Z,11.52
2023-02-13T12:16:38.399Z,11.54
2023-02-13T12:19:13.203Z,11.58
2023-02-13T12:22:14.957Z,11.62
2023-02-13T12:25:07.091Z,11.57
2023-02-13T12:28:06.437Z,11.58
2023-02-13T12:31:15.735Z,11.65
2023-02-13T12:34:07.875Z,11.74
2023-02-13T12:36:53.856Z,11.85
2023-02-13T12:39:34.491Z,11.96
2023-02-13T12:42:07.255Z,11.93
2023-02-13T12:45:03.003Z,11.94
2023-02-13T12:47:36.052Z,12.02
2023-02-13T12:50:22.269Z,12.04
2023-02-13T12:53:08.556Z,12.06
2023-02-13T12:56:06.564Z,12.19
2023-02-13T12:58:51.678Z,12.25
2023-02-13T13:01:27.951Z,12.28
2023-02-13T13:04:04.091Z,12.32
2023-02-13T13:06:40.878Z,12.36
2023-02-13T13:09:31.100Z,12.23
2023-02-13T13:12:24.946Z,12.25
2023-02-13T13:15:31.071Z,12.28
2023-02-13T13:18:13.451Z,12.27
2023-02-13T13:21:05.238Z,12.30
2023-02-13T13:23:48.424Z,12.25
2023-02-13T13:26:46.458Z,12.36
2023-02-13T13:29:22.996Z,12.33
2023-02-13T13:31:56.089Z,12.05
2023-02-13T13:34:53.755Z,12.36
2023-02-13T13:37:44.248Z,12.37
2023-02-13T13:40:25.565Z,12.23
2023-02-13T13:43:26.190Z,12.41
2023-02-13T13:46:15.982Z,12.39
2023-02-13T13:49:07.798Z,12.41
2023-02-13T13:51:34.835Z,12.42
2023-02-13T13:54:04.973Z,12.48
2023-02-13T13:56:53.676Z,12.50
2023-02-13T13:59:43.704Z,12.52
2023-02-13T14:02:16.837Z,12.53
2023-02-13T14:05:20.790Z,12.56
2023-02-13T14:08:33.164Z,12.53
2023-02-13T14:11:02.845Z,12.47
2023-02-13T14:13:35.977Z,11.52
2023-02-13T14:16:04.864Z,11.99
2023-02-13T14:18:32.594Z,11.97
2023-02-13T14:21:02.701Z,12.43
2023-02-13T14:24:24.051Z,12.52
2023-02-13T14:27:05.074Z,12.07
2023-02-13T14:29:34.213Z,12.46
2023-02-13T14:32:14.807Z,12.55
2023-02-13T14:34:43.645Z,12.36
2023-02-13T14:37:10.693Z,12.57
2023-02-13T14:39:41.905Z,12.58
2023-02-13T14:42:29.900Z,12.51
2023-02-13T14:45:00.510Z,12.41
2023-02-13T14:47:36.286Z,12.14
2023-02-13T14:50:05.701Z,12.51
2023-02-13T14:52:42.812Z,12.41
2023-02-13T14:55:20.652Z,12.48
2023-02-13T14:57:54.500Z,11.95
2023-02-13T15:00:25.310Z,12.34
2023-02-13T15:02:58.727Z,12.36
2023-02-13T15:05:32.674Z,12.32
2023-02-13T15:08:40.788Z,12.31
2023-02-13T15:11:35.722Z,12.31
2023-02-13T15:14:35.051Z,12.19
2023-02-13T15:17:10.597Z,12.14
2023-02-13T15:19:43.551Z,12.03
2023-02-13T15:22:39.718Z,12.13
2023-02-13T15:25:29.471Z,11.98
2023-02-13T15:28:15.968Z,11.99
2023-02-13T15:30:54.041Z,11.91
2023-02-13T15:33:24.419Z,11.72
2023-02-13T15:36:05.463Z,11.76
2023-02-13T15:38:36.736Z,11.12
2023-02-13T15:41:21.146Z,11.59
2023-02-13T15:43:55.832Z,11.55
2023-02-13T15:46:36.514Z,11.03
2023-02-13T15:49:10.472Z,11.34
2023-02-13T15:51:37.670Z,11.33
2023-02-13T15:54:23.588Z,11.25
2023-02-13T15:56:55.850Z,11.16
2023-02-13T15:59:26.154Z,11.00
2023-02-13T16:01:53.884Z,11.05
2023-02-13T16:04:22.569Z,10.87
2023-02-13T16:06:53.739Z,10.96
2023-02-13T16:09:34.664Z,10.54
2023-02-13T16:12:16.661Z,10.34
2023-02-13T16:14:57.015Z,10.61
2023-02-13T16:17:31.792Z,10.62
2023-02-13T16:20:01.814Z,10.50
2023-02-13T16:22:31.772Z,10.47
2023-02-13T16:25:27.808Z,10.45
2023-02-13T16:27:58.035Z,10.36
2023-02-13T16:30:33.370Z,10.27
2023-02-13T16:33:16.068Z,10.13
2023-02-13T16:35:45.442Z,10.08
2023-02-13T16:38:38.487Z,10.05
2023-02-13T16:41:06.579Z,9.97
2023-02-13T16:43:37.767Z,9.95
2023-02-13T16:46:14.945Z,9.83
2023-02-13T16:48:48.014Z,9.77
2023-02-13T16:51:16.694Z,9.41
2023-02-13T16:53:43.814Z,9.56
2023-02-13T16:56:11.436Z,9.46
2023-02-13T16:58:38.573Z,9.35
2023-02-13T17:01:06.028Z,8.78
2023-02-13T17:03:33.202Z,9.26
2023-02-13T17:06:02.298Z,9.13
2023-02-13T17:08:32.048Z,8.89
2023-02-13T17:11:05.499Z,8.94
2023-02-13T17:13:35.338Z,8.88
2023-02-13T17:16:02.395Z,8.77
2023-02-13T17:18:29.740Z,8.54
2023-02-13T17:20:57.380Z,8.59
2023-02-13T17:23:25.531Z,8.62
2023-02-13T17:25:54.010Z,8.57
2023-02-13T17:28:27.688Z,8.04
2023-02-13T17:30:57.868Z,8.40
2023-02-13T17:33:27.858Z,8.37
2023-02-13T17:35:55.485Z,8.27
2023-02-13T17:38:22.943Z,8.05
2023-02-13T17:40:50.369Z,8.05
2023-02-13T17:43:19.547Z,8.01
2023-02-13T17:45:47.838Z,7.98
2023-02-13T17:48:15.753Z,7.91
2023-02-13T17:50:43.088Z,7.88
2023-02-13T17:53:39.871Z,7.72
2023-02-13T17:56:06.932Z,7.21
2023-02-13T17:58:35.007Z,7.13
2023-02-13T18:01:02.384Z,7.44
2023-02-13T18:03:29.601Z,7.47
2023-02-13T18:05:56.762Z,6.99
2023-02-13T18:08:23.947Z,6.63
2023-02-13T18:10:52.086Z,6.33
2023-02-13T18:13:19.142Z,6.87
2023-02-13T18:15:46.441Z,6.95
2023-02-13T18:18:15.858Z,7.15
2023-02-13T18:20:43.680Z,7.05
2023-02-13T18:23:11.197Z,7.08
2023-02-13T18:25:38.218Z,6.85
2023-02-13T18:28:05.410Z,6.85
2023-02-13T18:30:32.488Z,6.83
2023-02-13T18:32:59.550Z,6.77
2023-02-13T18:35:27.294Z,6.75
2023-02-13T18:37:54.411Z,6.44
2023-02-13T18:40:22.485Z,6.67
2023-02-13T18:42:51.084Z,6.28
2023-02-13T18:45:18.437Z,6.57
2023-02-13T18:47:45.457Z,6.50
2023-02-13T18:50:12.643Z,6.37
2023-02-13T18:52:39.795Z,6.30
2023-02-13T18:55:07.379Z,6.09
2023-02-13T18:57:34.833Z,6.04
2023-02-13T19:00:03.212Z,5.93
2023-02-13T19:02:32.865Z,5.96
2023-02-13T19:05:00.986Z,5.83
2023-02-13T19:07:28.348Z,5.98
2023-02-13T19:09:55.723Z,5.91
2023-02-13T19:12:23.284Z,5.15
2023-02-13T19:14:50.557Z,5.80
2023-02-13T19:17:17.833Z,5.91
2023-02-13T19:19:46.902Z,5.76
2023-02-13T19:22:14.216Z,5.93
2023-02-13T19:24:41.811Z,5.45
2023-02-13T19:27:08.876Z,5.71
2023-02-13T19:29:35.916Z,5.68
2023-02-13T19:32:03.375Z,5.85
2023-02-13T19:34:32.526Z,5.16
2023-02-13T19:36:59.510Z,5.14
2023-02-13T19:39:26.576Z,5.44
2023-02-13T19:41:53.696Z,5.37
2023-02-13T19:44:20.876Z,5.60
2023-02-13T19:46:48.014Z,5.59
2023-02-13T19:49:15.210Z,5.53
2023-02-13T19:51:42.432Z,4.84
2023-02-13T19:54:11.051Z,5.40
2023-02-13T19:56:39.676Z,5.32
2023-02-13T19:59:07.795Z,5.25
2023-02-13T20:01:35.208Z,4.55
2023-02-13T20:04:02.343Z,5.14
2023-02-13T20:06:35.752Z,4.35
2023-02-13T20:09:13.384Z,4.51
2023-02-13T20:11:41.396Z,4.88
2023-02-13T20:14:14.454Z,4.79
2023-02-13T20:16:42.933Z,4.68
2023-02-13T20:19:11.642Z,4.68
2023-02-13T20:21:41.343Z,4.67
2023-02-13T20:24:10.144Z,4.50
2023-02-13T20:26:37.281Z,4.35
2023-02-13T20:29:04.692Z,4.42
2023-02-13T20:31:34.216Z,4.43
2023-02-13T20:34:01.735Z,4.19
2023-02-13T20:36:31.471Z,4.30
2023-02-13T20:39:01.237Z,4.17
2023-02-13T20:41:30.666Z,3.70
2023-02-13T20:43:59.503Z,4.14
2023-02-13T20:46:27.130Z,3.71
2023-02-13T20:48:54.206Z,4.15
2023-02-13T20:51:21.281Z,4.06
2023-02-13T20:53:48.313Z,3.79
2023-02-13T20:56:17.050Z,3.87
2023-02-13T20:58:45.702Z,3.81
2023-02-13T21:01:15.763Z,3.78
2023-02-13T21:03:43.304Z,3.40
2023-02-13T21:06:11.494Z,3.71
2023-02-13T21:08:39.259Z,3.48
2023-02-13T21:11:07.950Z,3.74
2023-02-13T21:13:35.935Z,3.47
2023-02-13T21:16:22.410Z,3.61
2023-02-13T21:18:52.698Z,3.46
2023-02-13T21:21:22.437Z,3.00
2023-02-13T21:23:53.200Z,3.50
2023-02-13T21:26:21.257Z,3.36
2023-02-13T21:28:50.482Z,3.33
2023-02-13T21:31:29.160Z,3.25
2023-02-13T21:34:03.002Z,3.13
2023-02-13T21:36:31.185Z,3.18
2023-02-13T21:38:58.579Z,2.24
2023-02-13T21:41:26.136Z,2.79
2023-02-13T21:43:53.422Z,3.04
2023-02-13T21:46:26.521Z,3.04
2023-02-13T21:48:58.697Z,3.02
2023-02-13T21:51:27.356Z,3.02
2023-02-13T21:53:55.104Z,3.07
2023-02-13T21:56:25.257Z,2.86
2023-02-13T21:58:53.557Z,3.04
2023-02-13T22:01:29.924Z,3.00
2023-02-13T22:04:00.930Z,2.91
2023-02-13T22:06:30.450Z,2.29
2023-02-13T22:08:59.658Z,2.55
2023-02-13T22:11:27.430Z,2.63
2023-02-13T22:13:56.787Z,2.75
2023-02-13T22:16:24.356Z,2.62
2023-02-13T22:18:51.504Z,2.64
2023-02-13T22:21:21.228Z,2.65
2023-02-13T22:23:50.095Z,2.64
2023-02-13T22:26:20.224Z,2.33
2023-02-13T22:28:47.751Z,2.48
2023-02-13T22:31:15.535Z,1.76
2023-02-13T22:33:42.983Z,2.41
2023-02-13T22:36:12.921Z,2.33
2023-02-13T22:38:41.157Z,2.20
2023-02-13T22:41:13.861Z,2.26
2023-02-13T22:43:41.428Z,2.38
2023-02-13T22:46:16.519Z,2.42
2023-02-13T22:48:46.298Z,2.09
2023-02-13T22:51:19.275Z,2.19
2023-02-13T22:53:48.453Z,2.15
2023-02-13T23:00:23.077Z,2.10
2023-02-13T23:02:50.875Z,2.01
2023-02-13T23:05:18.081Z,1.71
2023-02-13T23:07:45.054Z,1.97
2023-02-13T23:10:12.168Z,1.95
2023-02-13T23:12:40.498Z,1.83
2023-02-13T23:15:12.769Z,1.97
2023-02-13T23:18:00.240Z,1.95
2023-02-13T23:20:27.992Z,1.93
2023-02-13T23:22:55.140Z,1.55
2023-02-13T23:25:22.770Z,1.95
2023-02-13T23:27:49.784Z,1.95
2023-02-13T23:30:19.086Z,1.90
2023-02-13T23:32:46.211Z,1.62
2023-02-13T23:35:13.259Z,1.96
2023-02-13T23:37:40.404Z,1.37
2023-02-13T23:40:08.712Z,1.49
2023-02-13T23:42:35.707Z,1.74
2023-02-13T23:45:02.996Z,1.69
2023-02-13T23:47:29.991Z,1.47
2023-02-13T23:49:57.007Z,1.55
2023-02-13T23:52:24.224Z,1.52
2023-02-13T23:54:51.408Z,1.29
2023-02-13T23:57:18.896Z,1.39
2023-02-13T23:59:46.018Z,1.59
